sensor_id;sensor_type;location;lat;lon;timestamp;pressure;altitude;pressure_sealevel;temperature
45850;BMP180;10739;52.198;20.908;2023-07-22T00:00:00;99743.00;;;22.40
45850;BMP180;10739;52.198;20.908;2023-07-22T00:02:26;99743.00;;;22.30
45850;BMP180;10739;52.198;20.908;2023-07-22T00:04:52;99737.00;;;22.40
45850;BMP180;10739;52.198;20.908;2023-07-22T00:07:18;99727.00;;;22.50
45850;BMP180;10739;52.198;20.908;2023-07-22T00:09:44;99741.00;;;22.50
45850;BMP180;10739;52.198;20.908;2023-07-22T00:12:11;99737.00;;;22.40
45850;BMP180;10739;52.198;20.908;2023-07-22T00:14:41;99743.00;;;22.30
45850;BMP180;10739;52.198;20.908;2023-07-22T00:17:08;99731.00;;;22.40
45850;BMP180;10739;52.198;20.908;2023-07-22T00:19:34;99729.00;;;22.40
45850;BMP180;10739;52.198;20.908;2023-07-22T00:22:00;99736.00;;;22.20
45850;BMP180;10739;52.198;20.908;2023-07-22T00:24:27;99742.00;;;22.20
45850;BMP180;10739;52.198;20.908;2023-07-22T00:26:53;99741.00;;;22.00
45850;BMP180;10739;52.198;20.908;2023-07-22T00:29:20;99720.00;;;22.30
45850;BMP180;10739;52.198;20.908;2023-07-22T00:31:46;99735.00;;;22.10
45850;BMP180;10739;52.198;20.908;2023-07-22T00:34:12;99735.00;;;21.90
45850;BMP180;10739;52.198;20.908;2023-07-22T00:36:38;99727.00;;;22.10
45850;BMP180;10739;52.198;20.908;2023-07-22T00:39:04;99720.00;;;22.30
45850;BMP180;10739;52.198;20.908;2023-07-22T00:41:31;99718.00;;;22.30
45850;BMP180;10739;52.198;20.908;2023-07-22T00:43:58;99728.00;;;22.20
45850;BMP180;10739;52.198;20.908;2023-07-22T00:46:24;99725.00;;;22.20
45850;BMP180;10739;52.198;20.908;2023-07-22T00:48:50;99723.00;;;21.90
45850;BMP180;10739;52.198;20.908;2023-07-22T00:51:17;99722.00;;;21.80
45850;BMP180;10739;52.198;20.908;2023-07-22T00:53:45;99727.00;;;21.80
45850;BMP180;10739;52.198;20.908;2023-07-22T00:56:11;99722.00;;;21.50
45850;BMP180;10739;52.198;20.908;2023-07-22T00:58:37;99724.00;;;21.90
45850;BMP180;10739;52.198;20.908;2023-07-22T01:01:04;99727.00;;;22.00
45850;BMP180;10739;52.198;20.908;2023-07-22T01:03:30;99718.00;;;21.80
45850;BMP180;10739;52.198;20.908;2023-07-22T01:05:58;99727.00;;;21.70
45850;BMP180;10739;52.198;20.908;2023-07-22T01:08:26;99715.00;;;21.40
45850;BMP180;10739;52.198;20.908;2023-07-22T01:10:52;99711.00;;;21.60
45850;BMP180;10739;52.198;20.908;2023-07-22T01:13:18;99706.00;;;21.80
45850;BMP180;10739;52.198;20.908;2023-07-22T01:15:45;99697.00;;;22.20
45850;BMP180;10739;52.198;20.908;2023-07-22T01:18:12;99692.00;;;21.80
45850;BMP180;10739;52.198;20.908;2023-07-22T01:20:39;99686.00;;;22.10
45850;BMP180;10739;52.198;20.908;2023-07-22T01:23:05;99684.00;;;22.20
45850;BMP180;10739;52.198;20.908;2023-07-22T01:25:32;99686.00;;;22.30
45850;BMP180;10739;52.198;20.908;2023-07-22T01:27:59;99678.00;;;22.20
45850;BMP180;10739;52.198;20.908;2023-07-22T01:30:25;99675.00;;;22.20
45850;BMP180;10739;52.198;20.908;2023-07-22T01:32:53;99676.00;;;22.10
45850;BMP180;10739;52.198;20.908;2023-07-22T01:35:19;99679.00;;;21.70
45850;BMP180;10739;52.198;20.908;2023-07-22T01:37:46;99676.00;;;22.00
45850;BMP180;10739;52.198;20.908;2023-07-22T01:40:12;99666.00;;;22.10
45850;BMP180;10739;52.198;20.908;2023-07-22T01:42:40;99661.00;;;21.90
45850;BMP180;10739;52.198;20.908;2023-07-22T01:45:08;99673.00;;;21.90
45850;BMP180;10739;52.198;20.908;2023-07-22T01:47:35;99675.00;;;21.00
45850;BMP180;10739;52.198;20.908;2023-07-22T01:50:04;99671.00;;;21.00
45850;BMP180;10739;52.198;20.908;2023-07-22T01:52:32;99670.00;;;21.10
45850;BMP180;10739;52.198;20.908;2023-07-22T01:54:58;99664.00;;;21.10
45850;BMP180;10739;52.198;20.908;2023-07-22T01:57:24;99676.00;;;21.20
45850;BMP180;10739;52.198;20.908;2023-07-22T01:59:50;99672.00;;;21.10
45850;BMP180;10739;52.198;20.908;2023-07-22T02:02:17;99675.00;;;20.80
45850;BMP180;10739;52.198;20.908;2023-07-22T02:04:43;99676.00;;;21.10
45850;BMP180;10739;52.198;20.908;2023-07-22T02:07:09;99671.00;;;21.10
45850;BMP180;10739;52.198;20.908;2023-07-22T02:09:36;99671.00;;;20.90
45850;BMP180;10739;52.198;20.908;2023-07-22T02:12:04;99677.00;;;21.10
45850;BMP180;10739;52.198;20.908;2023-07-22T02:14:32;99678.00;;;21.40
45850;BMP180;10739;52.198;20.908;2023-07-22T02:16:59;99673.00;;;21.40
45850;BMP180;10739;52.198;20.908;2023-07-22T02:19:26;99673.00;;;21.20
45850;BMP180;10739;52.198;20.908;2023-07-22T02:21:53;99678.00;;;21.30
45850;BMP180;10739;52.198;20.908;2023-07-22T02:24:19;99667.00;;;21.40
45850;BMP180;10739;52.198;20.908;2023-07-22T02:26:46;99674.00;;;21.00
45850;BMP180;10739;52.198;20.908;2023-07-22T02:29:12;99682.00;;;21.00
45850;BMP180;10739;52.198;20.908;2023-07-22T02:31:39;99683.00;;;21.20
45850;BMP180;10739;52.198;20.908;2023-07-22T02:34:05;99680.00;;;21.40
45850;BMP180;10739;52.198;20.908;2023-07-22T02:36:32;99682.00;;;21.30
45850;BMP180;10739;52.198;20.908;2023-07-22T02:38:58;99674.00;;;21.40
45850;BMP180;10739;52.198;20.908;2023-07-22T02:41:24;99666.00;;;21.40
45850;BMP180;10739;52.198;20.908;2023-07-22T02:43:50;99664.00;;;21.30
45850;BMP180;10739;52.198;20.908;2023-07-22T02:46:17;99659.00;;;21.30
45850;BMP180;10739;52.198;20.908;2023-07-22T02:48:43;99655.00;;;21.40
45850;BMP180;10739;52.198;20.908;2023-07-22T02:51:10;99661.00;;;21.20
45850;BMP180;10739;52.198;20.908;2023-07-22T02:53:37;99663.00;;;21.30
45850;BMP180;10739;52.198;20.908;2023-07-22T02:56:05;99664.00;;;21.20
45850;BMP180;10739;52.198;20.908;2023-07-22T02:58:33;99658.00;;;21.20
45850;BMP180;10739;52.198;20.908;2023-07-22T03:00:59;99659.00;;;21.30
45850;BMP180;10739;52.198;20.908;2023-07-22T03:03:26;99650.00;;;20.90
45850;BMP180;10739;52.198;20.908;2023-07-22T03:05:52;99662.00;;;21.30
45850;BMP180;10739;52.198;20.908;2023-07-22T03:08:19;99661.00;;;21.20
45850;BMP180;10739;52.198;20.908;2023-07-22T03:10:45;99658.00;;;21.30
45850;BMP180;10739;52.198;20.908;2023-07-22T03:13:15;99649.00;;;21.10
45850;BMP180;10739;52.198;20.908;2023-07-22T03:15:42;99653.00;;;21.20
45850;BMP180;10739;52.198;20.908;2023-07-22T03:18:08;99645.00;;;21.30
45850;BMP180;10739;52.198;20.908;2023-07-22T03:20:39;99652.00;;;21.30
45850;BMP180;10739;52.198;20.908;2023-07-22T03:23:07;99651.00;;;21.30
45850;BMP180;10739;52.198;20.908;2023-07-22T03:25:34;99648.00;;;21.40
45850;BMP180;10739;52.198;20.908;2023-07-22T03:28:05;99655.00;;;21.30
45850;BMP180;10739;52.198;20.908;2023-07-22T03:30:31;99657.00;;;21.30
45850;BMP180;10739;52.198;20.908;2023-07-22T03:32:59;99662.00;;;21.20
45850;BMP180;10739;52.198;20.908;2023-07-22T03:35:27;99654.00;;;21.30
45850;BMP180;10739;52.198;20.908;2023-07-22T03:37:55;99650.00;;;21.50
45850;BMP180;10739;52.198;20.908;2023-07-22T03:40:21;99657.00;;;21.20
45850;BMP180;10739;52.198;20.908;2023-07-22T03:42:50;99656.00;;;21.50
45850;BMP180;10739;52.198;20.908;2023-07-22T03:45:18;99656.00;;;21.60
45850;BMP180;10739;52.198;20.908;2023-07-22T03:47:46;99659.00;;;21.70
45850;BMP180;10739;52.198;20.908;2023-07-22T03:50:13;99662.00;;;21.80
45850;BMP180;10739;52.198;20.908;2023-07-22T03:52:40;99660.00;;;21.80
45850;BMP180;10739;52.198;20.908;2023-07-22T03:55:06;99668.00;;;21.90
45850;BMP180;10739;52.198;20.908;2023-07-22T03:57:32;99666.00;;;21.90
45850;BMP180;10739;52.198;20.908;2023-07-22T03:59:59;99668.00;;;21.80
45850;BMP180;10739;52.198;20.908;2023-07-22T04:02:25;99671.00;;;21.70
45850;BMP180;10739;52.198;20.908;2023-07-22T04:04:54;99670.00;;;21.60
45850;BMP180;10739;52.198;20.908;2023-07-22T04:07:21;99669.00;;;21.70
45850;BMP180;10739;52.198;20.908;2023-07-22T04:09:48;99667.00;;;21.90
45850;BMP180;10739;52.198;20.908;2023-07-22T04:12:15;99669.00;;;21.60
45850;BMP180;10739;52.198;20.908;2023-07-22T04:14:41;99673.00;;;21.70
45850;BMP180;10739;52.198;20.908;2023-07-22T04:17:08;99659.00;;;21.60
45850;BMP180;10739;52.198;20.908;2023-07-22T04:19:34;99666.00;;;21.70
45850;BMP180;10739;52.198;20.908;2023-07-22T04:22:01;99665.00;;;21.50
45850;BMP180;10739;52.198;20.908;2023-07-22T04:24:33;99668.00;;;21.80
45850;BMP180;10739;52.198;20.908;2023-07-22T04:27:01;99668.00;;;21.80
45850;BMP180;10739;52.198;20.908;2023-07-22T04:29:27;99673.00;;;21.60
45850;BMP180;10739;52.198;20.908;2023-07-22T04:32:00;99681.00;;;21.70
45850;BMP180;10739;52.198;20.908;2023-07-22T04:34:31;99668.00;;;21.80
45850;BMP180;10739;52.198;20.908;2023-07-22T04:36:57;99681.00;;;21.50
45850;BMP180;10739;52.198;20.908;2023-07-22T04:39:24;99682.00;;;21.70
45850;BMP180;10739;52.198;20.908;2023-07-22T04:41:51;99671.00;;;21.40
45850;BMP180;10739;52.198;20.908;2023-07-22T04:44:19;99675.00;;;21.50
45850;BMP180;10739;52.198;20.908;2023-07-22T04:46:45;99685.00;;;21.30
45850;BMP180;10739;52.198;20.908;2023-07-22T04:49:11;99678.00;;;21.20
45850;BMP180;10739;52.198;20.908;2023-07-22T04:51:38;99685.00;;;21.30
45850;BMP180;10739;52.198;20.908;2023-07-22T04:54:04;99686.00;;;21.40
45850;BMP180;10739;52.198;20.908;2023-07-22T04:56:30;99680.00;;;21.40
45850;BMP180;10739;52.198;20.908;2023-07-22T04:58:56;99688.00;;;21.70
45850;BMP180;10739;52.198;20.908;2023-07-22T05:01:22;99688.00;;;21.60
45850;BMP180;10739;52.198;20.908;2023-07-22T05:03:48;99700.00;;;21.50
45850;BMP180;10739;52.198;20.908;2023-07-22T05:06:14;99704.00;;;21.40
45850;BMP180;10739;52.198;20.908;2023-07-22T05:08:40;99711.00;;;21.70
45850;BMP180;10739;52.198;20.908;2023-07-22T05:11:07;99717.00;;;20.90
45850;BMP180;10739;52.198;20.908;2023-07-22T05:13:33;99709.00;;;20.80
45850;BMP180;10739;52.198;20.908;2023-07-22T05:15:59;99713.00;;;20.90
45850;BMP180;10739;52.198;20.908;2023-07-22T05:18:26;99728.00;;;20.60
45850;BMP180;10739;52.198;20.908;2023-07-22T05:20:51;99727.00;;;20.50
45850;BMP180;10739;52.198;20.908;2023-07-22T05:23:17;99723.00;;;20.70
45850;BMP180;10739;52.198;20.908;2023-07-22T05:25:44;99729.00;;;20.90
45850;BMP180;10739;52.198;20.908;2023-07-22T05:28:15;99726.00;;;20.40
45850;BMP180;10739;52.198;20.908;2023-07-22T05:30:41;99727.00;;;20.90
45850;BMP180;10739;52.198;20.908;2023-07-22T05:33:07;99726.00;;;21.20
45850;BMP180;10739;52.198;20.908;2023-07-22T05:35:33;99730.00;;;21.30
45850;BMP180;10739;52.198;20.908;2023-07-22T05:38:00;99718.00;;;21.30
45850;BMP180;10739;52.198;20.908;2023-07-22T05:40:28;99719.00;;;21.30
45850;BMP180;10739;52.198;20.908;2023-07-22T05:42:55;99719.00;;;21.30
45850;BMP180;10739;52.198;20.908;2023-07-22T05:45:21;99727.00;;;21.20
45850;BMP180;10739;52.198;20.908;2023-07-22T05:47:47;99720.00;;;21.30
45850;BMP180;10739;52.198;20.908;2023-07-22T05:50:13;99728.00;;;21.00
45850;BMP180;10739;52.198;20.908;2023-07-22T05:52:39;99723.00;;;20.90
45850;BMP180;10739;52.198;20.908;2023-07-22T05:55:05;99737.00;;;21.30
45850;BMP180;10739;52.198;20.908;2023-07-22T05:57:32;99728.00;;;21.10
45850;BMP180;10739;52.198;20.908;2023-07-22T05:59:58;99736.00;;;21.20
45850;BMP180;10739;52.198;20.908;2023-07-22T06:02:24;99728.00;;;21.70
45850;BMP180;10739;52.198;20.908;2023-07-22T06:04:50;99725.00;;;21.50
45850;BMP180;10739;52.198;20.908;2023-07-22T06:07:16;99721.00;;;21.60
45850;BMP180;10739;52.198;20.908;2023-07-22T06:09:42;99728.00;;;21.90
45850;BMP180;10739;52.198;20.908;2023-07-22T06:12:08;99728.00;;;21.50
45850;BMP180;10739;52.198;20.908;2023-07-22T06:14:34;99732.00;;;21.60
45850;BMP180;10739;52.198;20.908;2023-07-22T06:17:01;99726.00;;;21.80
45850;BMP180;10739;52.198;20.908;2023-07-22T06:19:27;99728.00;;;22.30
45850;BMP180;10739;52.198;20.908;2023-07-22T06:21:53;99730.00;;;21.90
45850;BMP180;10739;52.198;20.908;2023-07-22T06:24:19;99732.00;;;22.00
45850;BMP180;10739;52.198;20.908;2023-07-22T06:26:45;99722.00;;;22.10
45850;BMP180;10739;52.198;20.908;2023-07-22T06:29:12;99728.00;;;22.30
45850;BMP180;10739;52.198;20.908;2023-07-22T06:31:37;99732.00;;;22.10
45850;BMP180;10739;52.198;20.908;2023-07-22T06:34:03;99738.00;;;21.90
45850;BMP180;10739;52.198;20.908;2023-07-22T06:36:30;99740.00;;;22.10
45850;BMP180;10739;52.198;20.908;2023-07-22T06:38:56;99729.00;;;22.30
45850;BMP180;10739;52.198;20.908;2023-07-22T06:41:22;99739.00;;;22.50
45850;BMP180;10739;52.198;20.908;2023-07-22T06:43:50;99743.00;;;22.90
45850;BMP180;10739;52.198;20.908;2023-07-22T06:46:16;99743.00;;;23.10
45850;BMP180;10739;52.198;20.908;2023-07-22T06:48:43;99755.00;;;23.30
45850;BMP180;10739;52.198;20.908;2023-07-22T06:51:09;99756.00;;;23.10
45850;BMP180;10739;52.198;20.908;2023-07-22T06:53:35;99753.00;;;23.50
45850;BMP180;10739;52.198;20.908;2023-07-22T06:56:01;99756.00;;;23.00
45850;BMP180;10739;52.198;20.908;2023-07-22T06:58:27;99751.00;;;23.00
45850;BMP180;10739;52.198;20.908;2023-07-22T07:00:54;99751.00;;;23.10
45850;BMP180;10739;52.198;20.908;2023-07-22T07:03:22;99752.00;;;23.50
45850;BMP180;10739;52.198;20.908;2023-07-22T07:05:57;99757.00;;;23.30
45850;BMP180;10739;52.198;20.908;2023-07-22T07:08:24;99755.00;;;23.00
45850;BMP180;10739;52.198;20.908;2023-07-22T07:10:51;99764.00;;;22.50
45850;BMP180;10739;52.198;20.908;2023-07-22T07:13:17;99768.00;;;23.00
45850;BMP180;10739;52.198;20.908;2023-07-22T07:15:48;99776.00;;;23.10
45850;BMP180;10739;52.198;20.908;2023-07-22T07:18:15;99766.00;;;23.00
45850;BMP180;10739;52.198;20.908;2023-07-22T07:20:41;99777.00;;;22.80
45850;BMP180;10739;52.198;20.908;2023-07-22T07:23:07;99773.00;;;22.40
45850;BMP180;10739;52.198;20.908;2023-07-22T07:25:34;99783.00;;;22.80
45850;BMP180;10739;52.198;20.908;2023-07-22T07:28:00;99785.00;;;22.90
45850;BMP180;10739;52.198;20.908;2023-07-22T07:30:26;99790.00;;;22.80
45850;BMP180;10739;52.198;20.908;2023-07-22T07:32:52;99788.00;;;23.10
45850;BMP180;10739;52.198;20.908;2023-07-22T07:35:18;99787.00;;;23.20
45850;BMP180;10739;52.198;20.908;2023-07-22T07:37:45;99783.00;;;23.40
45850;BMP180;10739;52.198;20.908;2023-07-22T07:40:12;99795.00;;;23.20
45850;BMP180;10739;52.198;20.908;2023-07-22T07:42:38;99789.00;;;22.90
45850;BMP180;10739;52.198;20.908;2023-07-22T07:45:05;99793.00;;;23.10
45850;BMP180;10739;52.198;20.908;2023-07-22T07:47:31;99805.00;;;23.50
45850;BMP180;10739;52.198;20.908;2023-07-22T07:49:57;99801.00;;;23.80
45850;BMP180;10739;52.198;20.908;2023-07-22T07:52:23;99796.00;;;23.80
45850;BMP180;10739;52.198;20.908;2023-07-22T07:54:50;99800.00;;;23.90
45850;BMP180;10739;52.198;20.908;2023-07-22T07:57:15;99812.00;;;23.90
45850;BMP180;10739;52.198;20.908;2023-07-22T07:59:42;99818.00;;;23.90
45850;BMP180;10739;52.198;20.908;2023-07-22T08:02:08;99810.00;;;23.50
45850;BMP180;10739;52.198;20.908;2023-07-22T08:04:36;99826.00;;;23.90
45850;BMP180;10739;52.198;20.908;2023-07-22T08:07:05;99819.00;;;23.80
45850;BMP180;10739;52.198;20.908;2023-07-22T08:09:31;99836.00;;;24.00
45850;BMP180;10739;52.198;20.908;2023-07-22T08:11:57;99826.00;;;23.80
45850;BMP180;10739;52.198;20.908;2023-07-22T08:14:24;99826.00;;;24.60
45850;BMP180;10739;52.198;20.908;2023-07-22T08:16:50;99824.00;;;24.60
45850;BMP180;10739;52.198;20.908;2023-07-22T08:19:16;99837.00;;;24.40
45850;BMP180;10739;52.198;20.908;2023-07-22T08:21:42;99835.00;;;24.10
45850;BMP180;10739;52.198;20.908;2023-07-22T08:24:08;99836.00;;;24.00
45850;BMP180;10739;52.198;20.908;2023-07-22T08:26:34;99850.00;;;24.50
45850;BMP180;10739;52.198;20.908;2023-07-22T08:29:00;99845.00;;;24.30
45850;BMP180;10739;52.198;20.908;2023-07-22T08:31:27;99845.00;;;25.00
45850;BMP180;10739;52.198;20.908;2023-07-22T08:33:52;99831.00;;;24.60
45850;BMP180;10739;52.198;20.908;2023-07-22T08:36:19;99855.00;;;24.20
45850;BMP180;10739;52.198;20.908;2023-07-22T08:38:45;99848.00;;;24.10
45850;BMP180;10739;52.198;20.908;2023-07-22T08:41:14;99844.00;;;25.30
45850;BMP180;10739;52.198;20.908;2023-07-22T08:43:47;99861.00;;;25.20
45850;BMP180;10739;52.198;20.908;2023-07-22T08:46:15;99864.00;;;25.00
45850;BMP180;10739;52.198;20.908;2023-07-22T08:48:46;99856.00;;;25.40
45850;BMP180;10739;52.198;20.908;2023-07-22T08:51:17;99860.00;;;25.30
45850;BMP180;10739;52.198;20.908;2023-07-22T08:53:47;99861.00;;;25.30
45850;BMP180;10739;52.198;20.908;2023-07-22T08:56:14;99857.00;;;25.40
45850;BMP180;10739;52.198;20.908;2023-07-22T08:58:43;99862.00;;;25.90
45850;BMP180;10739;52.198;20.908;2023-07-22T09:01:10;99865.00;;;25.60
45850;BMP180;10739;52.198;20.908;2023-07-22T09:03:39;99875.00;;;25.90
45850;BMP180;10739;52.198;20.908;2023-07-22T09:06:06;99867.00;;;26.20
45850;BMP180;10739;52.198;20.908;2023-07-22T09:08:33;99876.00;;;26.30
45850;BMP180;10739;52.198;20.908;2023-07-22T09:11:00;99877.00;;;26.60
45850;BMP180;10739;52.198;20.908;2023-07-22T09:13:27;99881.00;;;26.80
45850;BMP180;10739;52.198;20.908;2023-07-22T09:15:57;99884.00;;;26.40
45850;BMP180;10739;52.198;20.908;2023-07-22T09:18:24;99887.00;;;26.20
45850;BMP180;10739;52.198;20.908;2023-07-22T09:20:50;99882.00;;;26.20
45850;BMP180;10739;52.198;20.908;2023-07-22T09:23:16;99884.00;;;26.60
45850;BMP180;10739;52.198;20.908;2023-07-22T09:25:43;99889.00;;;26.80
45850;BMP180;10739;52.198;20.908;2023-07-22T09:28:09;99878.00;;;27.30
45850;BMP180;10739;52.198;20.908;2023-07-22T09:30:38;99894.00;;;26.50
45850;BMP180;10739;52.198;20.908;2023-07-22T09:33:07;99884.00;;;26.10
45850;BMP180;10739;52.198;20.908;2023-07-22T09:35:49;99890.00;;;26.50
45850;BMP180;10739;52.198;20.908;2023-07-22T09:38:23;99890.00;;;26.00
45850;BMP180;10739;52.198;20.908;2023-07-22T09:40:51;99883.00;;;26.60
45850;BMP180;10739;52.198;20.908;2023-07-22T09:43:17;99884.00;;;27.50
45850;BMP180;10739;52.198;20.908;2023-07-22T09:45:48;99886.00;;;27.10
45850;BMP180;10739;52.198;20.908;2023-07-22T09:48:14;99893.00;;;28.10
45850;BMP180;10739;52.198;20.908;2023-07-22T09:50:41;99896.00;;;28.20
45850;BMP180;10739;52.198;20.908;2023-07-22T09:53:07;99894.00;;;28.30
45850;BMP180;10739;52.198;20.908;2023-07-22T09:55:34;99905.00;;;27.70
45850;BMP180;10739;52.198;20.908;2023-07-22T09:58:03;99894.00;;;27.10
45850;BMP180;10739;52.198;20.908;2023-07-22T10:00:34;99904.00;;;27.50
45850;BMP180;10739;52.198;20.908;2023-07-22T10:03:03;99912.00;;;27.40
45850;BMP180;10739;52.198;20.908;2023-07-22T10:05:35;99913.00;;;26.80
45850;BMP180;10739;52.198;20.908;2023-07-22T10:08:03;99907.00;;;26.30
45850;BMP180;10739;52.198;20.908;2023-07-22T10:10:34;99914.00;;;25.80
45850;BMP180;10739;52.198;20.908;2023-07-22T10:13:01;99923.00;;;25.40
45850;BMP180;10739;52.198;20.908;2023-07-22T10:15:34;99920.00;;;25.80
45850;BMP180;10739;52.198;20.908;2023-07-22T10:18:02;99920.00;;;26.50
45850;BMP180;10739;52.198;20.908;2023-07-22T10:20:30;99905.00;;;27.70
45850;BMP180;10739;52.198;20.908;2023-07-22T10:22:56;99905.00;;;28.20
45850;BMP180;10739;52.198;20.908;2023-07-22T10:25:24;99915.00;;;28.20
45850;BMP180;10739;52.198;20.908;2023-07-22T10:27:53;99912.00;;;28.40
45850;BMP180;10739;52.198;20.908;2023-07-22T10:30:20;99904.00;;;28.80
45850;BMP180;10739;52.198;20.908;2023-07-22T10:32:53;99908.00;;;29.60
45850;BMP180;10739;52.198;20.908;2023-07-22T10:38:12;99908.00;;;29.80
45850;BMP180;10739;52.198;20.908;2023-07-22T10:40:49;99913.00;;;28.60
45850;BMP180;10739;52.198;20.908;2023-07-22T10:43:17;99922.00;;;27.20
45850;BMP180;10739;52.198;20.908;2023-07-22T10:45:52;99915.00;;;26.90
45850;BMP180;10739;52.198;20.908;2023-07-22T10:48:19;99911.00;;;27.60
45850;BMP180;10739;52.198;20.908;2023-07-22T10:50:52;99920.00;;;27.00
45850;BMP180;10739;52.198;20.908;2023-07-22T11:12:16;99912.00;;;29.50
45850;BMP180;10739;52.198;20.908;2023-07-22T11:14:51;99914.00;;;28.70
45850;BMP180;10739;52.198;20.908;2023-07-22T11:17:27;99909.00;;;28.40
45850;BMP180;10739;52.198;20.908;2023-07-22T11:19:57;99908.00;;;28.30
45850;BMP180;10739;52.198;20.908;2023-07-22T11:22:23;99919.00;;;28.50
45850;BMP180;10739;52.198;20.908;2023-07-22T11:24:50;99925.00;;;28.00
45850;BMP180;10739;52.198;20.908;2023-07-22T11:27:16;99923.00;;;28.90
45850;BMP180;10739;52.198;20.908;2023-07-22T11:29:42;99918.00;;;28.30
45850;BMP180;10739;52.198;20.908;2023-07-22T11:32:19;99926.00;;;29.60
45850;BMP180;10739;52.198;20.908;2023-07-22T11:34:50;99919.00;;;30.40
45850;BMP180;10739;52.198;20.908;2023-07-22T11:37:18;99919.00;;;30.30
45850;BMP180;10739;52.198;20.908;2023-07-22T11:39:44;99921.00;;;29.50
45850;BMP180;10739;52.198;20.908;2023-07-22T11:42:11;99921.00;;;30.20
45850;BMP180;10739;52.198;20.908;2023-07-22T11:44:37;99917.00;;;29.60
45850;BMP180;10739;52.198;20.908;2023-07-22T11:47:07;99929.00;;;28.60
45850;BMP180;10739;52.198;20.908;2023-07-22T11:49:41;99926.00;;;27.40
45850;BMP180;10739;52.198;20.908;2023-07-22T11:52:17;99929.00;;;26.90
45850;BMP180;10739;52.198;20.908;2023-07-22T11:54:46;99925.00;;;26.70
45850;BMP180;10739;52.198;20.908;2023-07-22T11:57:21;99929.00;;;27.60
45850;BMP180;10739;52.198;20.908;2023-07-22T11:59:56;99916.00;;;28.40
45850;BMP180;10739;52.198;20.908;2023-07-22T12:02:28;99916.00;;;29.10
45850;BMP180;10739;52.198;20.908;2023-07-22T12:05:04;99914.00;;;29.00
45850;BMP180;10739;52.198;20.908;2023-07-22T12:07:34;99908.00;;;29.90
45850;BMP180;10739;52.198;20.908;2023-07-22T12:10:07;99907.00;;;30.00
45850;BMP180;10739;52.198;20.908;2023-07-22T12:12:34;99906.00;;;31.60
45850;BMP180;10739;52.198;20.908;2023-07-22T12:15:12;99907.00;;;32.20
45850;BMP180;10739;52.198;20.908;2023-07-22T12:18:00;99896.00;;;33.20
45850;BMP180;10739;52.198;20.908;2023-07-22T12:20:34;99905.00;;;32.80
45850;BMP180;10739;52.198;20.908;2023-07-22T12:23:01;99902.00;;;32.50
45850;BMP180;10739;52.198;20.908;2023-07-22T12:25:28;99904.00;;;30.60
45850;BMP180;10739;52.198;20.908;2023-07-22T12:27:54;99902.00;;;29.80
45850;BMP180;10739;52.198;20.908;2023-07-22T12:30:20;99905.00;;;29.50
45850;BMP180;10739;52.198;20.908;2023-07-22T12:32:47;99902.00;;;29.50
45850;BMP180;10739;52.198;20.908;2023-07-22T12:35:14;99909.00;;;29.20
45850;BMP180;10739;52.198;20.908;2023-07-22T12:37:40;99913.00;;;28.80
45850;BMP180;10739;52.198;20.908;2023-07-22T12:40:07;99916.00;;;28.80
45850;BMP180;10739;52.198;20.908;2023-07-22T12:42:38;99914.00;;;28.90
45850;BMP180;10739;52.198;20.908;2023-07-22T12:45:05;99911.00;;;30.10
45850;BMP180;10739;52.198;20.908;2023-07-22T12:47:32;99911.00;;;29.50
45850;BMP180;10739;52.198;20.908;2023-07-22T12:49:58;99911.00;;;29.10
45850;BMP180;10739;52.198;20.908;2023-07-22T12:52:24;99905.00;;;28.40
45850;BMP180;10739;52.198;20.908;2023-07-22T12:54:50;99906.00;;;28.70
45850;BMP180;10739;52.198;20.908;2023-07-22T12:57:16;99899.00;;;29.80
45850;BMP180;10739;52.198;20.908;2023-07-22T12:59:42;99892.00;;;30.50
45850;BMP180;10739;52.198;20.908;2023-07-22T13:02:09;99898.00;;;30.90
45850;BMP180;10739;52.198;20.908;2023-07-22T13:04:35;99904.00;;;31.00
45850;BMP180;10739;52.198;20.908;2023-07-22T13:07:01;99892.00;;;30.60
45850;BMP180;10739;52.198;20.908;2023-07-22T13:09:27;99909.00;;;31.50
45850;BMP180;10739;52.198;20.908;2023-07-22T13:11:53;99903.00;;;32.00
45850;BMP180;10739;52.198;20.908;2023-07-22T13:14:19;99896.00;;;32.00
45850;BMP180;10739;52.198;20.908;2023-07-22T13:17:10;99907.00;;;31.80
45850;BMP180;10739;52.198;20.908;2023-07-22T13:19:36;99910.00;;;32.90
45850;BMP180;10739;52.198;20.908;2023-07-22T13:22:02;99924.00;;;32.90
45850;BMP180;10739;52.198;20.908;2023-07-22T13:24:28;99922.00;;;32.10
45850;BMP180;10739;52.198;20.908;2023-07-22T13:26:54;99927.00;;;30.80
45850;BMP180;10739;52.198;20.908;2023-07-22T13:29:20;99921.00;;;30.60
45850;BMP180;10739;52.198;20.908;2023-07-22T13:31:46;99924.00;;;30.80
45850;BMP180;10739;52.198;20.908;2023-07-22T13:34:13;99926.00;;;31.20
45850;BMP180;10739;52.198;20.908;2023-07-22T13:36:40;99919.00;;;31.80
45850;BMP180;10739;52.198;20.908;2023-07-22T13:39:06;99934.00;;;31.50
45850;BMP180;10739;52.198;20.908;2023-07-22T13:41:32;99928.00;;;31.20
45850;BMP180;10739;52.198;20.908;2023-07-22T13:43:58;99921.00;;;30.40
45850;BMP180;10739;52.198;20.908;2023-07-22T13:46:24;99926.00;;;30.20
45850;BMP180;10739;52.198;20.908;2023-07-22T13:48:51;99939.00;;;30.90
45850;BMP180;10739;52.198;20.908;2023-07-22T13:51:17;99926.00;;;30.90
45850;BMP180;10739;52.198;20.908;2023-07-22T13:53:42;99925.00;;;30.70
45850;BMP180;10739;52.198;20.908;2023-07-22T13:56:09;99926.00;;;30.80
45850;BMP180;10739;52.198;20.908;2023-07-22T13:58:36;99928.00;;;30.20
45850;BMP180;10739;52.198;20.908;2023-07-22T14:01:02;99930.00;;;30.30
45850;BMP180;10739;52.198;20.908;2023-07-22T14:03:29;99915.00;;;30.40
45850;BMP180;10739;52.198;20.908;2023-07-22T14:05:55;99927.00;;;30.90
45850;BMP180;10739;52.198;20.908;2023-07-22T14:08:21;99923.00;;;31.20
45850;BMP180;10739;52.198;20.908;2023-07-22T14:10:48;99927.00;;;31.10
45850;BMP180;10739;52.198;20.908;2023-07-22T14:13:14;99930.00;;;30.60
45850;BMP180;10739;52.198;20.908;2023-07-22T14:15:41;99914.00;;;30.10
45850;BMP180;10739;52.198;20.908;2023-07-22T14:18:08;99923.00;;;30.40